map of MYF home
MYF - Airport
Location
City:  San Diego, California, United States
Name:Montgomery-Gibbs Executive Airport
ICAO:KMYF
IATA:MYF
FAA LID:MYF

Details
Type:Airport (Airfield)
Use:Public/Civil
Latitude:3248'57"N (32.815722)
Longitude:11708'22"W (-117.139555)
Datum:WGS 1984
Elevation:427 ft (130 m)
Variation:11.46E (WMM2015v2 magnetic declination)
-0.08 annual change
Runways:3
Longest:4598 × 150 ft (1401 × 45.5 m), paved

Time
Time Zone:UTC-8 (DST-7)
Local Time:

Weather
METAR:KMYF 041353Z AUTO 06004KT 9SM FEW013 FEW017 OVC042 11/10 A2988 RMK AO2 RAE45 SLP117 P0014 T01110100

Related Locations
Nearby:
Farthest:RRG: 11530 mi / 18556 km
Plaine Corail [Sir Gatan Duval Airport (Plaine Corail Airport)], Rodrigues Island, MU

Find:

   beyond  
but within

Other Information
Maps:
NOTAMs:
Links:
Sources:

  
  • flag of United States
  • flag of California
  • flag of San Diego
  

Airport Diagram

Airport diagram for MYF

Airport diagram PDF from FAA

Sectional Chart

Flight Planning
at skyvector.com

Satellite Image

Google Maps Satellite view

 

Copyright © 2004-2019 Karl L. Swartz. All rights reserved.
The Great Circle Mapper name and logo are trademarks of the Great Circle Mapper.
All other trademarks mentioned herein belong to their respective owners.
Please see credits for attibutions and further copyright information.

  Follow gcmap on Facebook Follow gcmap on Twitter GCmap on LinkedIn

hCard Microformat

Geo Microformat